createdAt,value
2022-12-11T00:00:46.466Z,1.91
2022-12-11T00:03:16.090Z,1.90
2022-12-11T00:05:43.457Z,1.99
2022-12-11T00:08:10.211Z,1.93
2022-12-11T00:10:37.964Z,1.92
2022-12-11T00:13:05.082Z,1.89
2022-12-11T00:15:31.886Z,1.84
2022-12-11T00:17:58.465Z,1.88
2022-12-11T00:20:25.099Z,1.80
2022-12-11T00:22:51.725Z,1.63
2022-12-11T00:25:18.468Z,1.67
2022-12-11T00:27:46.800Z,1.26
2022-12-11T00:30:14.264Z,1.42
2022-12-11T00:32:40.978Z,1.28
2022-12-11T00:35:08.393Z,1.31
2022-12-11T00:37:35.359Z,1.40
2022-12-11T00:40:02.004Z,1.02
2022-12-11T00:42:28.656Z,0.87
2022-12-11T00:44:56.336Z,0.79
2022-12-11T00:47:22.919Z,0.89
2022-12-11T00:49:50.158Z,1.10
2022-12-11T00:52:18.023Z,1.23
2022-12-11T00:54:45.471Z,0.63
2022-12-11T00:57:12.089Z,0.86
2022-12-11T00:59:38.888Z,1.14
2022-12-11T01:02:05.495Z,1.24
2022-12-11T01:04:32.088Z,1.24
2022-12-11T01:06:58.664Z,0.90
2022-12-11T01:10:00.592Z,1.08
2022-12-11T01:12:28.559Z,0.78
2022-12-11T01:14:55.143Z,0.62
2022-12-11T01:17:21.803Z,0.32
2022-12-11T01:19:48.392Z,0.71
2022-12-11T01:22:15.324Z,0.83
2022-12-11T01:24:41.925Z,0.67
2022-12-11T01:27:08.563Z,0.54
2022-12-11T01:29:35.135Z,0.39
2022-12-11T01:32:01.723Z,0.75
2022-12-11T01:34:33.148Z,0.81
2022-12-11T01:36:59.808Z,0.49
2022-12-11T01:39:26.392Z,0.68
2022-12-11T01:42:00.565Z,0.55
2022-12-11T01:44:27.172Z,0.52
2022-12-11T01:46:54.444Z,0.40
2022-12-11T01:49:25.857Z,0.19
2022-12-11T01:52:00.511Z,0.56
2022-12-11T01:54:29.125Z,0.61
2022-12-11T01:57:01.475Z,0.68
2022-12-11T01:59:31.884Z,0.52
2022-12-11T02:02:24.425Z,0.33
2022-12-11T02:04:51.643Z,0.19
2022-12-11T02:07:18.314Z,0.26
2022-12-11T02:09:47.584Z,0.17
2022-12-11T02:12:36.111Z,0.37
2022-12-11T02:15:21.334Z,0.51
2022-12-11T02:17:54.521Z,0.59
2022-12-11T02:20:31.950Z,0.72
2022-12-11T02:23:04.759Z,0.67
2022-12-11T02:25:36.920Z,0.64
2022-12-11T02:28:31.830Z,0.58
2022-12-11T02:31:14.195Z,0.74
2022-12-11T02:33:52.344Z,0.83
2022-12-11T02:36:21.660Z,0.64
2022-12-11T02:38:51.694Z,0.58
2022-12-11T02:41:21.704Z,0.50
2022-12-11T02:43:50.631Z,0.45
2022-12-11T02:46:19.871Z,0.57
2022-12-11T02:48:50.673Z,0.62
2022-12-11T02:51:22.014Z,0.46
2022-12-11T02:53:50.496Z,0.55
2022-12-11T02:56:22.414Z,0.53
2022-12-11T02:58:58.486Z,0.14
2022-12-11T03:01:26.165Z,0.13
2022-12-11T03:03:54.041Z,0.29
2022-12-11T03:06:24.118Z,0.44
2022-12-11T03:08:51.995Z,0.46
2022-12-11T03:11:18.625Z,0.33
2022-12-11T03:13:45.524Z,0.33
2022-12-11T03:16:15.650Z,0.39
2022-12-11T03:19:06.567Z,0.02
2022-12-11T03:21:36.364Z,0.18
2022-12-11T03:24:27.239Z,0.15
2022-12-11T03:27:01.145Z,0.13
2022-12-11T03:29:37.344Z,0.05
2022-12-11T03:32:16.283Z,0.05
2022-12-11T03:34:58.153Z,0.09
2022-12-11T03:37:28.759Z,-0.02
2022-12-11T03:40:01.957Z,0.09
2022-12-11T03:42:29.665Z,0.15
2022-12-11T03:45:00.032Z,0.14
2022-12-11T03:47:28.747Z,0.15
2022-12-11T03:49:57.474Z,0.08
2022-12-11T03:52:27.400Z,0.11
2022-12-11T03:54:55.902Z,-0.13
2022-12-11T03:57:28.822Z,-0.61
2022-12-11T03:59:55.480Z,-0.87
2022-12-11T04:02:22.080Z,-0.94
2022-12-11T04:04:48.815Z,-0.91
2022-12-11T04:07:15.456Z,-0.51
2022-12-11T04:09:42.034Z,-0.44
2022-12-11T04:12:08.650Z,-0.37
2022-12-11T04:14:53.738Z,-0.35
2022-12-11T04:17:38.972Z,-0.42
2022-12-11T04:20:38.906Z,-0.54
2022-12-11T04:23:25.951Z,-0.56
2022-12-11T04:25:52.583Z,-0.63
2022-12-11T04:28:19.194Z,-1.31
2022-12-11T04:30:50.392Z,-1.10
2022-12-11T04:33:17.117Z,-0.82
2022-12-11T04:35:44.701Z,-0.70
2022-12-11T04:38:11.328Z,-0.48
2022-12-11T04:40:37.898Z,-0.68
2022-12-11T04:43:04.576Z,-0.51
2022-12-11T04:45:31.127Z,-0.52
2022-12-11T04:47:57.692Z,-0.57
2022-12-11T04:50:24.290Z,-0.67
2022-12-11T04:52:50.996Z,-0.76
2022-12-11T04:55:17.704Z,-0.74
2022-12-11T04:57:44.323Z,-0.86
2022-12-11T05:00:12.549Z,-0.90
2022-12-11T05:02:40.992Z,-0.82
2022-12-11T05:05:09.919Z,-0.91
2022-12-11T05:07:37.786Z,-0.98
2022-12-11T05:10:05.865Z,-1.20
2022-12-11T05:12:33.207Z,-1.20
2022-12-11T05:14:59.804Z,-1.42
2022-12-11T05:17:26.376Z,-1.26
2022-12-11T05:19:53.182Z,-1.39
2022-12-11T05:22:19.815Z,-1.76
2022-12-11T05:24:46.439Z,-1.67
2022-12-11T05:27:13.147Z,-1.50
2022-12-11T05:29:39.867Z,-1.47
2022-12-11T05:32:06.644Z,-1.49
2022-12-11T05:34:33.267Z,-1.32
2022-12-11T05:36:59.875Z,-1.30
2022-12-11T05:39:26.812Z,-1.48
2022-12-11T05:41:53.676Z,-1.61
2022-12-11T05:44:20.452Z,-1.89
2022-12-11T05:46:47.334Z,-1.91
2022-12-11T05:49:13.992Z,-1.98
2022-12-11T05:51:41.318Z,-2.26
2022-12-11T05:54:07.983Z,-2.05
2022-12-11T05:56:35.955Z,-1.78
2022-12-11T05:59:04.446Z,-2.08
2022-12-11T06:01:40.357Z,-1.79
2022-12-11T06:04:07.982Z,-1.46
2022-12-11T06:06:35.507Z,-1.37
2022-12-11T06:09:03.081Z,-1.31
2022-12-11T06:11:31.110Z,-1.36
2022-12-11T06:14:00.780Z,-1.13
2022-12-11T06:16:27.420Z,-1.19
2022-12-11T06:18:57.982Z,-1.15
2022-12-11T06:21:28.223Z,-1.12
2022-12-11T06:23:56.371Z,-1.09
2022-12-11T06:26:23.871Z,-1.13
2022-12-11T06:28:50.904Z,-1.19
2022-12-11T06:31:18.345Z,-1.18
2022-12-11T06:33:45.231Z,-1.27
2022-12-11T06:36:15.064Z,-1.51
2022-12-11T06:38:42.024Z,-1.50
2022-12-11T06:41:09.491Z,-1.66
2022-12-11T06:43:38.013Z,-1.71
2022-12-11T06:46:12.805Z,-2.10
2022-12-11T06:48:39.834Z,-1.96
2022-12-11T06:51:08.185Z,-1.69
2022-12-11T06:53:35.414Z,-1.36
2022-12-11T06:56:07.309Z,-1.31
2022-12-11T06:58:35.962Z,-1.26
2022-12-11T07:01:03.886Z,-1.28
2022-12-11T07:03:30.567Z,-1.45
2022-12-11T07:06:03.339Z,-1.97
2022-12-11T07:08:30.046Z,-2.09
2022-12-11T07:11:03.461Z,-2.21
2022-12-11T07:13:30.052Z,-2.74
2022-12-11T07:15:58.792Z,-2.26
2022-12-11T07:18:25.414Z,-2.01
2022-12-11T07:20:52.120Z,-2.01
2022-12-11T07:23:18.786Z,-2.08
2022-12-11T07:25:45.410Z,-2.03
2022-12-11T07:28:16.561Z,-1.99
2022-12-11T07:30:43.492Z,-1.95
2022-12-11T07:33:10.422Z,-1.92
2022-12-11T07:35:37.626Z,-1.82
2022-12-11T07:38:04.234Z,-1.71
2022-12-11T07:40:31.596Z,-1.67
2022-12-11T07:42:58.139Z,-1.83
2022-12-11T07:45:26.628Z,-2.00
2022-12-11T07:47:53.570Z,-2.22
2022-12-11T07:50:20.220Z,-2.51
2022-12-11T07:52:46.954Z,-2.46
2022-12-11T07:55:13.789Z,-2.39
2022-12-11T07:57:40.712Z,-2.46
2022-12-11T08:00:08.377Z,-2.37
2022-12-11T08:02:38.912Z,-2.67
2022-12-11T08:05:06.214Z,-2.79
2022-12-11T08:07:35.473Z,-2.64
2022-12-11T08:10:03.425Z,-2.50
2022-12-11T08:12:30.424Z,-2.81
2022-12-11T08:14:57.631Z,-2.83
2022-12-11T08:17:29.070Z,-2.77
2022-12-11T08:19:57.537Z,-3.10
2022-12-11T08:22:24.212Z,-3.07
2022-12-11T08:24:50.849Z,-2.84
2022-12-11T08:27:17.882Z,-2.90
2022-12-11T08:29:46.767Z,-2.92
2022-12-11T08:32:13.950Z,-3.02
2022-12-11T08:34:41.789Z,-3.14
2022-12-11T08:37:08.331Z,-2.92
2022-12-11T08:39:35.643Z,-2.83
2022-12-11T08:42:02.327Z,-2.77
2022-12-11T08:44:29.846Z,-2.58
2022-12-11T08:46:56.393Z,-2.66
2022-12-11T08:49:23.015Z,-2.51
2022-12-11T08:51:49.603Z,-2.61
2022-12-11T08:54:16.173Z,-2.74
2022-12-11T08:56:42.724Z,-2.77
2022-12-11T08:59:09.402Z,-2.50
2022-12-11T09:01:36.110Z,-2.57
2022-12-11T09:04:02.743Z,-2.52
2022-12-11T09:06:30.206Z,-2.59
2022-12-11T09:08:59.954Z,-2.65
2022-12-11T09:11:30.077Z,-2.43
2022-12-11T09:13:59.849Z,-2.45
2022-12-11T09:16:29.283Z,-2.35
2022-12-11T09:18:57.939Z,-2.24
2022-12-11T09:21:27.979Z,-2.31
2022-12-11T09:23:56.836Z,-2.08
2022-12-11T09:26:24.536Z,-2.56
2022-12-11T09:28:53.493Z,-2.53
2022-12-11T09:31:29.216Z,-2.41
2022-12-11T09:33:58.659Z,-2.36
2022-12-11T09:36:25.819Z,-2.25
2022-12-11T09:38:52.472Z,-2.18
2022-12-11T09:41:22.134Z,-2.31
2022-12-11T09:44:16.873Z,-2.19
2022-12-11T09:46:45.095Z,-1.98
2022-12-11T09:49:21.769Z,-1.96
2022-12-11T09:52:00.769Z,-1.90
2022-12-11T09:54:27.606Z,-1.85
2022-12-11T09:57:26.191Z,-2.07
2022-12-11T10:00:07.894Z,-2.21
2022-12-11T10:02:40.821Z,-1.95
2022-12-11T10:05:36.082Z,-1.50
2022-12-11T10:08:20.795Z,-1.46
2022-12-11T10:10:55.757Z,-1.26
2022-12-11T10:13:34.437Z,-1.27
2022-12-11T10:16:20.187Z,-1.52
2022-12-11T10:18:48.613Z,-1.59
2022-12-11T10:21:18.313Z,-1.63
2022-12-11T10:23:53.720Z,-1.28
2022-12-11T10:26:26.793Z,-1.34
2022-12-11T10:28:53.527Z,-1.48
2022-12-11T10:31:26.972Z,-1.51
2022-12-11T10:34:01.597Z,-1.48
2022-12-11T10:36:30.139Z,-1.27
2022-12-11T10:38:57.550Z,-1.30
2022-12-11T10:41:38.152Z,-1.22
2022-12-11T10:44:17.611Z,-1.03
2022-12-11T10:46:45.940Z,-0.97
2022-12-11T10:49:30.510Z,-0.98
2022-12-11T10:52:01.367Z,-0.89
2022-12-11T10:54:41.040Z,-0.82
2022-12-11T10:57:10.142Z,-0.71
2022-12-11T10:59:42.734Z,-0.60
2022-12-11T11:02:32.234Z,-0.64
2022-12-11T11:05:00.974Z,-0.72
2022-12-11T11:07:30.667Z,-0.65
2022-12-11T11:10:11.345Z,-0.47
2022-12-11T11:12:41.288Z,-0.42
2022-12-11T11:15:14.132Z,-0.25
2022-12-11T11:17:54.486Z,-0.29
2022-12-11T11:20:30.176Z,-0.24
2022-12-11T11:23:02.420Z,-0.10
2022-12-11T11:25:32.823Z,-0.26
2022-12-11T11:28:06.182Z,-0.07
2022-12-11T11:30:37.284Z,0.12
2022-12-11T11:33:12.248Z,0.22
2022-12-11T11:35:42.639Z,0.25
2022-12-11T11:38:21.936Z,0.06
2022-12-11T11:41:04.242Z,0.08
2022-12-11T11:43:46.558Z,0.19
2022-12-11T11:46:32.087Z,0.34
2022-12-11T11:49:18.647Z,0.39
2022-12-11T11:52:15.581Z,0.50
2022-12-11T11:55:00.889Z,0.55
2022-12-11T11:57:35.623Z,0.54
2022-12-11T12:00:10.738Z,0.60
2022-12-11T12:02:41.301Z,0.71
2022-12-11T12:05:13.484Z,0.72
2022-12-11T12:07:59.575Z,0.73
2022-12-11T12:10:38.454Z,0.80
2022-12-11T12:16:55.621Z,1.03
2022-12-11T12:19:47.117Z,1.11
2022-12-11T12:22:25.365Z,1.10
2022-12-11T12:25:07.197Z,1.04
2022-12-11T12:27:55.268Z,0.84
2022-12-11T12:30:23.251Z,0.97
2022-12-11T12:33:02.673Z,0.99
2022-12-11T12:35:32.265Z,0.98
2022-12-11T12:38:04.750Z,1.08
2022-12-11T12:40:38.808Z,1.18
2022-12-11T12:43:23.512Z,0.64
2022-12-11T12:45:56.899Z,0.72
2022-12-11T12:48:24.720Z,0.63
2022-12-11T12:50:51.199Z,0.47
2022-12-11T12:53:19.714Z,0.40
2022-12-11T12:55:47.865Z,0.26
2022-12-11T12:58:26.893Z,0.61
2022-12-11T13:00:53.534Z,0.96
2022-12-11T13:03:21.854Z,0.97
2022-12-11T13:06:06.215Z,0.97
2022-12-11T13:08:43.528Z,0.87
2022-12-11T13:11:11.134Z,0.83
2022-12-11T13:13:37.563Z,0.95
2022-12-11T13:16:16.286Z,0.81
2022-12-11T13:18:47.621Z,0.83
2022-12-11T13:21:32.575Z,0.89
2022-12-11T13:24:34.537Z,0.84
2022-12-11T13:27:11.115Z,1.00
2022-12-11T13:29:41.907Z,0.91
2022-12-11T13:32:11.319Z,0.92
2022-12-11T13:34:39.361Z,0.92
2022-12-11T13:37:06.208Z,0.84
2022-12-11T13:39:37.631Z,0.69
2022-12-11T13:42:20.312Z,0.70
2022-12-11T13:44:47.785Z,0.74
2022-12-11T13:47:15.770Z,0.86
2022-12-11T13:49:43.745Z,0.88
2022-12-11T13:52:20.950Z,0.91
2022-12-11T13:54:50.725Z,0.87
2022-12-11T13:57:21.760Z,0.88
2022-12-11T13:59:55.334Z,0.92
2022-12-11T14:02:34.185Z,0.99
2022-12-11T14:05:02.842Z,0.95
2022-12-11T14:07:34.855Z,0.92
2022-12-11T14:10:20.242Z,0.85
2022-12-11T14:12:49.714Z,0.89
2022-12-11T14:15:16.401Z,0.80
2022-12-11T14:17:48.442Z,0.92
2022-12-11T14:20:19.742Z,0.93
2022-12-11T14:22:46.284Z,0.92
2022-12-11T14:25:24.812Z,1.00
2022-12-11T14:27:52.612Z,1.06
2022-12-11T14:30:29.982Z,1.09
2022-12-11T14:32:57.920Z,1.01
2022-12-11T14:35:38.428Z,0.99
2022-12-11T14:38:16.116Z,1.03
2022-12-11T14:40:44.338Z,1.00
2022-12-11T14:43:14.118Z,1.03
2022-12-11T14:45:42.991Z,1.17
2022-12-11T14:48:13.750Z,1.19
2022-12-11T14:50:47.487Z,1.12
2022-12-11T14:53:15.557Z,1.19
2022-12-11T14:55:42.323Z,1.21
2022-12-11T14:58:15.565Z,1.22
2022-12-11T15:00:42.278Z,1.28
2022-12-11T15:03:11.795Z,1.26
2022-12-11T15:05:48.729Z,1.10
2022-12-11T15:08:24.413Z,1.02
2022-12-11T15:11:10.171Z,1.16
2022-12-11T15:13:49.667Z,1.08
2022-12-11T15:16:19.016Z,0.87
2022-12-11T15:18:48.147Z,0.83
2022-12-11T15:21:16.589Z,0.82
2022-12-11T15:23:51.995Z,0.75
2022-12-11T15:26:20.028Z,0.75
2022-12-11T15:28:47.052Z,0.90
2022-12-11T15:31:23.030Z,0.98
2022-12-11T15:33:49.561Z,0.99
2022-12-11T15:36:23.409Z,1.02
2022-12-11T15:38:49.891Z,1.10
2022-12-11T15:41:18.022Z,1.16
2022-12-11T15:43:44.788Z,1.12
2022-12-11T15:46:11.376Z,1.07
2022-12-11T15:48:37.848Z,1.08
2022-12-11T15:51:04.295Z,1.09
2022-12-11T15:53:30.863Z,1.19
2022-12-11T15:55:58.719Z,1.26
2022-12-11T15:58:27.206Z,1.27
2022-12-11T16:00:54.160Z,1.17
2022-12-11T16:03:23.158Z,0.99
2022-12-11T16:05:51.447Z,0.84
2022-12-11T16:08:20.037Z,0.75
2022-12-11T16:10:46.897Z,0.62
2022-12-11T16:13:13.820Z,0.63
2022-12-11T16:15:42.037Z,0.61
2022-12-11T16:18:10.236Z,0.79
2022-12-11T16:20:37.755Z,0.79
2022-12-11T16:23:04.220Z,0.67
2022-12-11T16:25:31.681Z,0.73
2022-12-11T16:27:59.537Z,0.80
2022-12-11T16:30:26.624Z,0.88
2022-12-11T16:32:53.452Z,1.01
2022-12-11T16:35:20.672Z,0.98
2022-12-11T16:37:50.927Z,0.70
2022-12-11T16:40:17.970Z,0.67
2022-12-11T16:42:44.950Z,0.53
2022-12-11T16:45:15.485Z,0.30
2022-12-11T16:47:41.979Z,0.24
2022-12-11T16:50:09.387Z,0.39
2022-12-11T16:52:35.891Z,0.38
2022-12-11T16:55:02.520Z,0.34
2022-12-11T16:57:28.996Z,0.27
2022-12-11T16:59:55.411Z,0.32
2022-12-11T17:02:21.910Z,0.28
2022-12-11T17:04:53.685Z,0.42
2022-12-11T17:07:20.625Z,0.37
2022-12-11T17:09:47.444Z,0.22
2022-12-11T17:12:13.914Z,0.08
2022-12-11T17:14:40.411Z,0.28
2022-12-11T17:17:06.931Z,0.30
2022-12-11T17:19:33.484Z,0.39
2022-12-11T17:21:59.988Z,0.47
2022-12-11T17:24:26.578Z,0.45
2022-12-11T17:26:53.712Z,0.45
2022-12-11T17:29:21.194Z,0.37
2022-12-11T17:31:47.912Z,0.38
2022-12-11T17:34:15.651Z,0.55
2022-12-11T17:36:42.076Z,0.42
2022-12-11T17:39:08.519Z,0.23
2022-12-11T17:41:34.978Z,0.39
2022-12-11T17:44:01.481Z,0.58
2022-12-11T17:46:27.938Z,0.48
2022-12-11T17:48:54.462Z,0.55
2022-12-11T17:51:23.857Z,0.64
2022-12-11T17:53:51.961Z,0.55
2022-12-11T17:56:18.472Z,0.60
2022-12-11T17:58:45.026Z,0.61
2022-12-11T18:01:13.115Z,0.53
2022-12-11T18:03:40.396Z,0.53
2022-12-11T18:06:11.999Z,0.35
2022-12-11T18:08:39.142Z,0.28
2022-12-11T18:11:13.645Z,0.35
2022-12-11T18:13:40.399Z,0.30
2022-12-11T18:16:09.001Z,0.45
2022-12-11T18:18:35.665Z,0.51
2022-12-11T18:21:02.110Z,0.23
2022-12-11T18:23:28.611Z,0.08
2022-12-11T18:25:55.228Z,0.18
2022-12-11T18:28:22.058Z,0.10
2022-12-11T18:30:48.537Z,0.34
2022-12-11T18:33:15.687Z,0.15
2022-12-11T18:35:42.283Z,-0.04
2022-12-11T18:38:08.691Z,-0.29
2022-12-11T18:40:35.162Z,0.02
2022-12-11T18:43:01.594Z,0.02
2022-12-11T18:45:28.145Z,-0.36
2022-12-11T18:47:56.476Z,-0.23
2022-12-11T18:50:22.907Z,-0.23
2022-12-11T18:52:52.661Z,-0.07
2022-12-11T18:55:19.117Z,-0.08
2022-12-11T18:57:45.522Z,0.07
2022-12-11T19:00:12.392Z,0.02
2022-12-11T19:02:38.815Z,-0.01
2022-12-11T19:05:05.566Z,-0.37
2022-12-11T19:07:33.128Z,-0.35
2022-12-11T19:09:59.564Z,-0.27
2022-12-11T19:12:26.010Z,-0.22
2022-12-11T19:14:52.482Z,-0.20
2022-12-11T19:17:18.934Z,-0.19
2022-12-11T19:19:47.410Z,-0.29
2022-12-11T19:22:14.921Z,-0.41
2022-12-11T19:24:41.403Z,-0.36
2022-12-11T19:27:13.239Z,-0.38
2022-12-11T19:29:40.235Z,-1.09
2022-12-11T19:32:06.668Z,-0.80
2022-12-11T19:34:33.244Z,-0.57
2022-12-11T19:36:59.874Z,-0.80
2022-12-11T19:39:26.318Z,-0.89
2022-12-11T19:41:52.737Z,-1.09
2022-12-11T19:44:19.156Z,-0.98
2022-12-11T19:46:45.801Z,-0.86
2022-12-11T19:49:12.614Z,-0.84
2022-12-11T19:51:40.278Z,-0.96
2022-12-11T19:54:08.383Z,-1.02
2022-12-11T19:56:35.580Z,-0.81
2022-12-11T19:59:03.414Z,-0.70
2022-12-11T20:01:31.140Z,-0.75
2022-12-11T20:03:59.472Z,-0.92
2022-12-11T20:06:30.718Z,-0.96
2022-12-11T20:08:57.339Z,-1.00
2022-12-11T20:11:24.397Z,-0.95
2022-12-11T20:13:51.091Z,-0.95
2022-12-11T20:16:20.010Z,-0.92
2022-12-11T20:18:55.771Z,-0.94
2022-12-11T20:21:22.323Z,-0.94
2022-12-11T20:23:49.189Z,-0.98
2022-12-11T20:26:17.106Z,-1.03
2022-12-11T20:28:44.874Z,-1.02
2022-12-11T20:31:19.552Z,-1.03
2022-12-11T20:33:46.801Z,-1.22
2022-12-11T20:36:14.355Z,-1.34
2022-12-11T20:38:41.685Z,-1.19
2022-12-11T20:41:09.527Z,-1.10
2022-12-11T20:43:37.091Z,-1.25
2022-12-11T20:46:07.391Z,-1.44
2022-12-11T20:48:34.195Z,-1.49
2022-12-11T20:51:01.667Z,-1.76
2022-12-11T20:53:31.052Z,-1.95
2022-12-11T20:55:57.752Z,-2.02
2022-12-11T20:58:24.192Z,-1.97
2022-12-11T21:00:51.040Z,-2.06
2022-12-11T21:03:17.651Z,-1.96
2022-12-11T21:05:45.301Z,-1.82
2022-12-11T21:08:12.300Z,-1.45
2022-12-11T21:10:41.618Z,-1.22
2022-12-11T21:13:08.190Z,-1.20
2022-12-11T21:15:39.050Z,-1.14
2022-12-11T21:18:05.826Z,-1.21
2022-12-11T21:20:32.392Z,-1.46
2022-12-11T21:22:58.946Z,-1.65
2022-12-11T21:25:25.931Z,-1.57
2022-12-11T21:27:52.422Z,-1.63
2022-12-11T21:30:19.006Z,-1.53
2022-12-11T21:32:45.547Z,-1.51
2022-12-11T21:35:12.407Z,-1.41
2022-12-11T21:37:41.701Z,-1.34
2022-12-11T21:40:09.121Z,-1.44
2022-12-11T21:42:35.562Z,-1.49
2022-12-11T21:47:50.146Z,-1.58
2022-12-11T21:50:17.103Z,-1.64
2022-12-11T21:52:44.022Z,-1.77
2022-12-11T21:55:11.417Z,-1.73
2022-12-11T21:57:38.004Z,-1.91
2022-12-11T22:00:05.314Z,-1.76
2022-12-11T22:02:41.081Z,-1.69
2022-12-11T22:05:08.066Z,-1.73
2022-12-11T22:07:34.576Z,-2.12
2022-12-11T22:10:01.079Z,-2.01
2022-12-11T22:12:28.131Z,-2.04
2022-12-11T22:14:54.797Z,-1.99
2022-12-11T22:17:21.581Z,-1.94
2022-12-11T22:19:48.184Z,-1.90
2022-12-11T22:22:14.647Z,-1.89
2022-12-11T22:24:41.661Z,-1.83
2022-12-11T22:27:08.197Z,-1.91
2022-12-11T22:29:35.561Z,-1.90
2022-12-11T22:32:02.087Z,-1.92
2022-12-11T22:34:28.554Z,-2.11
2022-12-11T22:36:55.101Z,-2.04
2022-12-11T22:39:21.620Z,-1.95
2022-12-11T22:41:48.107Z,-2.13
2022-12-11T22:44:16.021Z,-2.47
2022-12-11T22:46:48.199Z,-2.15
2022-12-11T22:49:16.375Z,-1.95
2022-12-11T22:51:42.826Z,-2.21
2022-12-11T22:54:09.251Z,-2.10
2022-12-11T22:56:35.764Z,-2.02
2022-12-11T22:59:02.434Z,-2.07
2022-12-11T23:01:29.101Z,-2.29
2022-12-11T23:03:55.604Z,-2.00
2022-12-11T23:06:24.714Z,-2.11
2022-12-11T23:08:52.023Z,-2.06
2022-12-11T23:11:18.665Z,-1.99
2022-12-11T23:13:45.135Z,-2.13
2022-12-11T23:16:12.234Z,-2.05
2022-12-11T23:18:39.407Z,-2.50
2022-12-11T23:21:07.117Z,-3.07
2022-12-11T23:23:33.585Z,-2.48
2022-12-11T23:26:00.076Z,-2.27
2022-12-11T23:28:26.473Z,-2.93
2022-12-11T23:30:53.175Z,-2.69
2022-12-11T23:33:19.651Z,-2.66
2022-12-11T23:35:46.134Z,-2.47
2022-12-11T23:38:12.633Z,-2.48
2022-12-11T23:40:39.399Z,-2.65
2022-12-11T23:43:05.854Z,-2.45
2022-12-11T23:45:32.381Z,-2.37
2022-12-11T23:47:58.953Z,-3.05
2022-12-11T23:50:26.045Z,-2.98
2022-12-11T23:52:52.596Z,-2.69
2022-12-11T23:55:19.350Z,-2.61
2022-12-11T23:57:46.089Z,-2.55
